Time;durP1;ratioP1;P1;durP2;ratioP2;P2;SDS_P1;SDS_P2;PMS_P1;PMS_P2;Temp;Humidity;BMP_temperature;BMP_pressure;BME280_temperature;BME280_humidity;BME280_pressure;Samples;Min_cycle;Max_cycle;Signal;HPM_P1;HPM_P2
2022/10/31 00:09:02;;;;;;;20.75;9.38;;;;;;;12.94;100.00;102018.00;2613720;39;20492;-57
2022/10/31 00:11:30;;;;;;;16.77;8.60;;;;;;;12.91;100.00;102017.34;2610943;36;20724;-53
2022/10/31 00:13:59;;;;;;;16.87;9.60;;;;;;;12.94;100.00;102017.09;2615706;36;20563;-55
2022/10/31 00:16:28;;;;;;;;;;;;;;;12.95;100.00;102018.84;2615889;36;20808;-56
2022/10/31 00:18:58;;;;;;;16.93;9.17;;;;;;;12.96;100.00;102018.72;2616485;36;19962;-53
2022/10/31 00:21:27;;;;;;;16.77;10.00;;;;;;;13.01;100.00;102020.19;2615352;36;20042;-53
2022/10/31 00:29:12;;;;;;;15.98;9.00;;;;;;;12.92;100.00;102028.03;2612072;54;20042;-57
2022/10/31 00:31:40;;;;;;;19.02;10.05;;;;;;;12.92;100.00;102025.34;2614939;36;20401;-52
2022/10/31 00:34:09;;;;;;;21.60;10.38;;;;;;;12.88;100.00;102026.59;2616556;36;20431;-56
2022/10/31 00:41:35;;;;;;;21.00;10.85;;;;;;;12.96;100.00;102032.22;2613554;31;20508;-52
2022/10/31 00:44:04;;;;;;;21.85;11.23;;;;;;;12.97;100.00;102033.09;2615937;36;20023;-54
2022/10/31 00:46:34;;;;;;;17.25;9.82;;;;;;;12.94;100.00;102036.03;2615607;36;20030;-55
2022/10/31 00:49:03;;;;;;;19.50;11.38;;;;;;;12.89;100.00;102033.69;2615920;36;20593;-55
2022/10/31 00:51:31;;;;;;;21.02;11.23;;;;;;;12.89;100.00;102036.41;2615407;36;20026;-52
2022/10/31 00:53:59;;;;;;;18.42;10.68;;;;;;;12.93;100.00;102027.06;2614906;36;20037;-56
2022/10/31 00:56:28;;;;;;;22.47;10.40;;;;;;;12.88;100.00;102023.00;2615210;36;20042;-56
2022/10/31 00:58:56;;;;;;;25.58;11.52;;;;;;;12.90;100.00;102021.91;2612129;54;20038;-55
2022/10/31 01:01:25;;;;;;;17.43;10.90;;;;;;;12.89;100.00;102031.00;2615134;36;20065;-57
2022/10/31 01:03:55;;;;;;;15.98;10.95;;;;;;;12.95;100.00;102032.34;2616679;31;20451;-55
2022/10/31 01:06:24;;;;;;;18.75;11.23;;;;;;;12.94;100.00;102026.09;2616028;36;20042;-54
2022/10/31 01:08:52;;;;;;;19.55;11.00;;;;;;;13.01;100.00;102033.69;2615702;36;20038;-55
2022/10/31 01:11:22;;;;;;;22.43;11.80;;;;;;;12.87;100.00;102032.13;2616257;36;20035;-54
2022/10/31 01:13:53;;;;;;;17.42;11.43;;;;;;;12.71;100.00;102037.88;2616184;36;20117;-54
2022/10/31 01:18:57;;;;;;;19.17;11.65;;;;;;;12.69;100.00;102038.00;2619457;36;20030;-54
2022/10/31 01:23:59;;;;;;;19.92;12.48;;;;;;;12.71;100.00;102037.88;2621564;36;20042;-54
2022/10/31 01:26:29;;;;;;;20.67;12.85;;;;;;;12.65;100.00;102032.94;2619793;36;20035;-54
2022/10/31 01:28:59;;;;;;;21.35;12.45;;;;;;;12.69;100.00;102032.59;2614940;36;20034;-54
2022/10/31 01:31:29;;;;;;;25.00;12.77;;;;;;;12.60;100.00;102039.59;2615877;36;20037;-59
2022/10/31 01:34:01;;;;;;;24.27;12.88;;;;;;;12.58;100.00;102035.28;2615773;36;20053;-57
2022/10/31 01:36:31;;;;;;;21.52;12.15;;;;;;;12.53;100.00;102026.66;2616366;36;20030;-52
2022/10/31 01:39:02;;;;;;;27.00;13.13;;;;;;;12.56;100.00;102023.75;2616088;36;20043;-55
2022/10/31 01:41:32;;;;;;;19.02;11.50;;;;;;;12.60;100.00;102009.00;2615103;54;20026;-54
2022/10/31 01:44:02;;;;;;;19.08;10.73;;;;;;;12.59;100.00;102010.84;2613853;36;20026;-53
2022/10/31 01:46:34;;;;;;;16.45;10.85;;;;;;;12.50;100.00;102008.88;2614525;36;20033;-56
2022/10/31 01:49:11;;;;;;;18.48;10.32;;;;;;;12.38;100.00;102008.00;2616644;36;20045;-54
2022/10/31 01:51:47;;;;;;;21.83;11.50;;;;;;;12.44;100.00;102009.38;2616322;36;20038;-54
2022/10/31 01:54:19;;;;;;;21.38;12.40;;;;;;;12.42;100.00;102006.75;2616091;31;20042;-57
2022/10/31 01:56:52;;;;;;;18.77;11.05;;;;;;;12.39;100.00;102012.41;2615390;36;20440;-50
2022/10/31 01:59:23;;;;;;;20.15;10.88;;;;;;;12.42;100.00;102003.22;2616123;36;20022;-53
2022/10/31 02:09:50;;;;;;;17.85;10.93;;;;;;;12.22;100.00;102010.16;2619554;36;20106;-55
2022/10/31 02:12:20;;;;;;;18.52;10.57;;;;;;;12.24;100.00;102008.19;2615933;36;20023;-53
2022/10/31 02:14:49;;;;;;;18.90;10.85;;;;;;;12.18;100.00;101998.75;2616005;36;20027;-56
2022/10/31 02:17:17;;;;;;;17.60;10.88;;;;;;;12.07;100.00;102002.28;2614988;36;20134;-54
2022/10/31 02:19:59;;;;;;;16.58;10.75;;;;;;;12.01;100.00;102002.72;2616187;36;20026;-55
2022/10/31 02:22:32;;;;;;;17.17;10.45;;;;;;;11.91;100.00;102001.66;2614648;36;20035;-54
2022/10/31 02:25:16;;;;;;;15.18;9.60;;;;;;;11.84;100.00;102008.53;2617266;36;20055;-52
2022/10/31 02:28:07;;;;;;;13.57;9.18;;;;;;;11.79;100.00;101998.06;2616698;36;20570;-55
2022/10/31 02:30:51;;;;;;;16.02;10.35;;;;;;;11.78;100.00;102001.75;2615751;36;20049;-52
2022/10/31 02:33:28;;;;;;;18.10;10.20;;;;;;;11.77;100.00;101989.25;2617228;36;20042;-56
2022/10/31 02:36:06;;;;;;;14.65;9.50;;;;;;;11.71;100.00;102000.50;2616666;36;20447;-54
2022/10/31 02:38:45;;;;;;;16.35;10.55;;;;;;;11.64;100.00;101992.00;2616991;36;20424;-54
2022/10/31 02:43:51;;;;;;;15.70;10.65;;;;;;;11.57;100.00;101994.31;2616018;36;20035;-54
2022/10/31 02:46:26;;;;;;;15.48;9.30;;;;;;;11.53;100.00;102003.59;2614897;36;20124;-51
2022/10/31 02:51:38;;;;;;;19.48;11.02;;;;;;;11.43;100.00;102001.72;2615553;54;20061;-53
2022/10/31 02:54:06;;;;;;;14.93;8.98;;;;;;;11.39;100.00;102006.44;2616670;36;20069;-53
2022/10/31 02:59:07;;;;;;;15.88;9.60;;;;;;;11.32;100.00;101994.41;2614601;54;20578;-53
2022/10/31 03:02:11;;;;;;;17.05;9.95;;;;;;;11.24;100.00;102004.91;2616088;36;20065;-53
2022/10/31 03:08:02;;;;;;;23.00;10.50;;;;;;;11.16;100.00;102005.44;2613198;54;20525;-56
2022/10/31 03:13:03;;;;;;;17.13;9.77;;;;;;;11.07;100.00;102003.41;2613934;36;19950;-56
2022/10/31 03:18:24;;;;;;;19.00;9.88;;;;;;;10.99;100.00;102010.22;2614680;36;20061;-56
2022/10/31 03:20:58;;;;;;;16.67;9.40;;;;;;;10.98;100.00;102013.03;2616139;36;20038;-55
2022/10/31 03:23:31;;;;;;;17.63;10.77;;;;;;;10.95;100.00;102019.47;2616830;31;20022;-54
2022/10/31 03:26:00;;;;;;;16.55;10.23;;;;;;;11.02;100.00;102014.53;2616670;36;20069;-54
2022/10/31 03:31:28;;;;;;;21.23;11.20;;;;;;;10.89;100.00;102014.53;2612887;47;20065;-54
2022/10/31 03:36:42;;;;;;;17.77;9.82;;;;;;;10.83;100.00;102013.16;2613664;54;20023;31
2022/10/31 03:39:16;;;;;;;16.83;10.10;;;;;;;10.83;100.00;102010.44;2616022;36;20453;-59
2022/10/31 03:41:49;;;;;;;17.80;10.57;;;;;;;10.77;100.00;102018.97;2616012;36;20026;-58
2022/10/31 03:44:21;;;;;;;18.15;9.50;;;;;;;10.79;100.00;102019.75;2615124;36;20566;-51
2022/10/31 03:46:50;;;;;;;14.65;9.73;;;;;;;10.79;100.00;102017.06;2613477;36;21629;-55
2022/10/31 03:52:01;;;;;;;17.42;9.88;;;;;;;10.66;100.00;102014.34;2612752;54;20054;-53
2022/10/31 03:54:39;;;;;;;13.85;8.88;;;;;;;10.65;100.00;102011.78;2616411;31;20038;-58
2022/10/31 03:57:13;;;;;;;14.45;9.32;;;;;;;10.62;100.00;102012.84;2615564;36;20038;-54
2022/10/31 03:59:45;;;;;;;17.10;8.93;;;;;;;10.62;100.00;102009.31;2615562;36;20065;-54
2022/10/31 04:04:44;;;;;;;17.98;9.38;;;;;;;10.61;100.00;102011.13;2612738;54;20568;-53
2022/10/31 04:07:14;;;;;;;14.40;8.60;;;;;;;10.58;100.00;102013.19;2615362;36;20037;-54
2022/10/31 04:09:48;;;;;;;14.07;8.52;;;;;;;10.60;100.00;102009.41;2615267;36;20022;-50
2022/10/31 04:12:19;;;;;;;15.43;9.43;;;;;;;10.59;100.00;102014.91;2616096;36;20042;-54
2022/10/31 04:19:51;;;;;;;13.32;8.63;;;;;;;10.50;100.00;102016.41;2614491;36;20034;-53
2022/10/31 04:22:19;;;;;;;15.75;8.73;;;;;;;10.46;100.00;102013.06;2615879;36;20034;-53
2022/10/31 04:24:50;;;;;;;12.95;8.45;;;;;;;10.43;100.00;102018.66;2616299;36;20978;-54
2022/10/31 04:27:18;;;;;;;12.93;8.25;;;;;;;10.45;100.00;102007.78;2616170;36;20019;-50
2022/10/31 04:29:46;;;;;;;12.57;8.98;;;;;;;10.40;100.00;102010.78;2614404;36;20120;-55
2022/10/31 04:37:14;;;;;;;16.65;8.68;;;;;;;10.00;100.00;102016.19;2613187;54;20069;-52
2022/10/31 04:39:42;;;;;;;13.73;8.23;;;;;;;9.78;100.00;102016.78;2615409;36;20030;-52
2022/10/31 04:54:59;;;;;;;18.48;9.60;;;;;;;9.53;100.00;102013.03;2615277;36;20082;-54
2022/10/31 05:12:54;;;;;;;17.55;10.77;;;;;;;9.40;100.00;102012.97;2614493;36;20303;-53
2022/10/31 05:15:24;;;;;;;16.30;9.40;;;;;;;9.41;100.00;102003.94;2616169;36;20318;-57
2022/10/31 05:17:54;;;;;;;16.08;9.90;;;;;;;9.37;100.00;102005.09;2614966;36;20065;-56
2022/10/31 05:20:24;;;;;;;17.77;9.48;;;;;;;9.36;100.00;102005.19;2615491;31;20856;-54
2022/10/31 05:22:54;;;;;;;18.98;10.00;;;;;;;9.41;100.00;102003.94;2615172;36;20042;-55
2022/10/31 05:25:24;;;;;;;18.70;10.90;;;;;;;9.41;100.00;101997.72;2615649;36;20046;-53
2022/10/31 05:27:56;;;;;;;17.83;10.02;;;;;;;9.38;100.00;102006.84;2615742;36;20547;-56
2022/10/31 05:30:26;;;;;;;18.05;9.95;;;;;;;9.37;100.00;102002.41;2612977;36;20030;-57
2022/10/31 05:40:26;;;;;;;17.58;10.07;;;;;;;9.18;100.00;102004.59;2612749;36;20557;-52
2022/10/31 05:50:46;;;;;;;18.95;11.52;;;;;;;9.14;100.00;102000.34;2614046;36;20590;-52
2022/10/31 05:53:14;;;;;;;20.40;10.95;;;;;;;9.15;100.00;102002.09;2615416;36;20042;-57
2022/10/31 05:55:43;;;;;;;19.90;11.07;;;;;;;9.14;100.00;101994.97;2613718;36;20022;-53
2022/10/31 06:03:12;;;;;;;22.55;11.35;;;;;;;9.18;100.00;101981.25;2612100;54;20094;-53
2022/10/31 06:05:40;;;;;;;;;;;;;;;9.22;100.00;101981.94;2614644;36;20053;-58
2022/10/31 06:08:11;;;;;;;20.10;12.38;;;;;;;9.21;100.00;101975.69;2615105;36;19942;-57
2022/10/31 06:10:39;;;;;;;19.05;11.35;;;;;;;9.29;100.00;101981.44;2615164;36;20038;-58
2022/10/31 06:36:02;;;;;;;26.60;14.65;;;;;;;9.51;100.00;101992.59;2612626;54;20955;-54
2022/10/31 06:38:31;;;;;;;26.63;15.02;;;;;;;9.57;100.00;101990.38;2613153;31;20034;-53
2022/10/31 06:40:59;;;;;;;27.23;14.45;;;;;;;9.52;100.00;102000.53;2614991;36;20030;-53
2022/10/31 06:51:03;;;;;;;25.80;13.93;;;;;;;9.39;100.00;101997.81;2613948;36;20151;-55
2022/10/31 06:53:32;;;;;;;26.83;14.93;;;;;;;9.43;100.00;101998.47;2616666;36;20429;-53
2022/10/31 06:56:00;;;;;;;26.07;14.40;;;;;;;9.45;100.00;101999.22;2614507;36;20057;-54
2022/10/31 06:58:28;;;;;;;26.33;15.45;;;;;;;9.46;100.00;101999.13;2615472;31;20038;-52
2022/10/31 07:08:38;;;;;;;25.63;14.27;;;;;;;9.45;100.00;101999.22;2615718;36;20069;-54
2022/10/31 07:11:07;;;;;;;26.67;14.27;;;;;;;9.42;100.00;102008.38;2616673;36;20034;-51
2022/10/31 07:13:35;;;;;;;25.35;15.18;;;;;;;9.44;100.00;102009.13;2616185;36;20035;-56
2022/10/31 07:16:06;;;;;;;22.92;13.82;;;;;;;9.49;100.00;102011.50;2616044;36;20042;-54
2022/10/31 07:26:18;;;;;;;31.05;16.73;;;;;;;9.78;100.00;102003.34;2614816;36;20039;-54
2022/10/31 07:28:48;;;;;;;28.77;17.25;;;;;;;9.84;100.00;101999.38;2616379;36;20030;-52
2022/10/31 07:31:16;;;;;;;28.23;16.92;;;;;;;9.93;100.00;102002.28;2615779;36;20039;-55
2022/10/31 07:33:44;;;;;;;27.00;16.38;;;;;;;9.99;100.00;102007.25;2617189;36;20019;-60
2022/10/31 07:36:13;;;;;;;31.27;17.75;;;;;;;10.13;100.00;101995.56;2616539;36;20551;-54
2022/10/31 07:41:24;;;;;;;30.27;17.75;;;;;;;10.24;100.00;102000.19;2618043;36;20022;-55
2022/10/31 07:43:52;;;;;;;33.55;17.83;;;;;;;10.41;100.00;101999.06;2616782;36;20046;-53
2022/10/31 07:46:21;;;;;;;28.73;18.10;;;;;;;10.61;100.00;102007.56;2614292;31;20058;-54
2022/10/31 07:48:49;;;;;;;38.60;19.58;;;;;;;10.68;100.00;102006.16;2616655;36;20038;-52
2022/10/31 07:51:17;;;;;;;38.17;18.92;;;;;;;10.80;100.00;102015.22;2615924;36;20041;-59
2022/10/31 07:53:45;;;;;;;34.08;18.63;;;;;;;10.87;100.00;102013.81;2617011;36;20029;-51
2022/10/31 07:56:14;;;;;;;34.45;17.80;;;;;;;10.92;100.00;102014.31;2615443;31;20034;-55
2022/10/31 07:58:44;;;;;;;36.08;18.75;;;;;;;11.02;100.00;102026.16;2616685;36;20527;-53
2022/10/31 08:01:14;;;;;;;42.40;19.55;;;;;;;11.09;100.00;102014.97;2615358;36;20042;-53
2022/10/31 08:03:42;;;;;;;37.28;18.90;;;;;;;11.14;100.00;102010.94;2616107;36;20057;-55
2022/10/31 08:06:10;;;;;;;35.53;20.05;;;;;;;11.22;100.00;102011.25;2614726;36;20033;-52
2022/10/31 08:08:38;;;;;;;47.05;22.13;;;;;;;11.34;100.00;102008.63;2615399;36;20034;-56
2022/10/31 08:11:07;;;;;;;35.63;20.30;;;;;;;11.42;100.00;102002.66;2615810;36;20038;-53
2022/10/31 08:13:35;;;;;;;40.60;20.92;;;;;;;11.54;100.00;102009.84;2615022;54;20034;-54
2022/10/31 08:16:07;;;;;;;34.10;18.83;;;;;;;11.62;100.00;102012.84;2613758;31;20026;-54
2022/10/31 08:18:37;;;;;;;36.65;19.30;;;;;;;11.71;100.00;102011.28;2615927;36;20034;-54
2022/10/31 08:21:05;;;;;;;33.78;19.13;;;;;;;11.79;100.00;102025.03;2616445;36;20026;-57
2022/10/31 08:26:09;;;;;;;35.15;19.30;;;;;;;11.98;100.00;102026.38;2617290;36;20535;-56
2022/10/31 08:28:37;;;;;;;35.75;19.17;;;;;;;12.16;100.00;102032.22;2616552;36;20547;-51
2022/10/31 08:31:13;;;;;;;40.30;19.33;;;;;;;12.23;100.00;102025.38;2616429;54;20037;-55
2022/10/31 08:33:41;;;;;;;39.15;19.65;;;;;;;12.36;100.00;102028.00;2616342;31;20031;-53
2022/10/31 08:36:10;;;;;;;38.63;19.55;;;;;;;12.42;100.00;102024.81;2616553;36;20578;-53
2022/10/31 08:38:38;;;;;;;45.90;21.20;;;;;;;12.58;100.00;102022.63;2616588;36;20419;-52
2022/10/31 08:41:07;;;;;;;39.20;20.17;;;;;;;12.74;100.00;102022.28;2616776;36;20447;-56
2022/10/31 08:43:35;;;;;;;39.42;19.17;;;;;;;13.01;100.00;102028.31;2616374;36;20061;-55
2022/10/31 08:46:04;;;;;;;37.63;18.77;;;;;;;13.20;100.00;102015.00;2615717;31;20030;-53
2022/10/31 08:48:35;;;;;;;31.98;17.85;;;;;;;13.48;100.00;102020.88;2616853;36;20030;-53
2022/10/31 08:51:03;;;;;;;38.55;19.58;;;;;;;13.62;100.00;102009.78;2616091;36;20023;-54
2022/10/31 08:53:32;;;;;;;43.23;19.33;;;;;;;13.78;100.00;102016.59;2616205;36;20045;-55
2022/10/31 08:56:00;;;;;;;37.70;17.63;;;;;;;13.89;100.00;102000.34;2615963;36;20057;-55
2022/10/31 08:58:28;;;;;;;34.72;17.70;;;;;;;14.05;100.00;101999.06;2616260;36;20634;-56
2022/10/31 09:00:58;;;;;;;30.52;16.05;;;;;;;13.97;100.00;102005.97;2615798;36;20031;-54
2022/10/31 09:03:28;;;;;;;27.77;14.63;;;;;;;13.88;100.00;101995.06;2615171;36;20124;-53
2022/10/31 09:06:02;;;;;;;26.10;14.32;;;;;;;14.16;100.00;102001.69;2615600;36;20061;-54
2022/10/31 09:08:33;;;;;;;25.42;13.98;;;;;;;14.25;100.00;101992.78;2616238;36;20045;-53
2022/10/31 09:11:01;;;;;;;30.40;14.75;;;;;;;14.45;100.00;101987.47;2616245;36;20022;-53
2022/10/31 09:13:30;;;;;;;25.88;12.38;;;;;;;14.49;100.00;101983.50;2617064;36;20423;-55
2022/10/31 09:16:00;;;;;;;18.58;11.27;;;;;;;14.50;100.00;101977.06;2615698;36;20099;-53
2022/10/31 09:18:31;;;;;;;20.50;10.75;;;;;;;14.53;100.00;101976.81;2615919;36;20057;-50
2022/10/31 09:21:03;;;;;;;18.92;10.80;;;;;;;14.55;100.00;101972.13;2615779;36;20451;-54
2022/10/31 09:23:32;;;;;;;21.88;10.63;;;;;;;14.67;100.00;101971.06;2615617;36;20034;-53
2022/10/31 09:28:28;;;;;;;17.60;9.07;;;;;;;14.73;100.00;101960.69;2620138;36;20598;-55
2022/10/31 09:30:57;;;;;;;16.50;8.63;;;;;;;14.89;100.00;101963.75;2616175;36;20496;-54
2022/10/31 09:33:39;;;;;;;16.88;8.10;;;;;;;15.10;100.00;101949.25;2616583;36;20642;-55
2022/10/31 09:36:12;;;;;;;18.95;8.30;;;;;;;15.14;100.00;101946.13;2614817;36;20107;-55
2022/10/31 09:38:51;;;;;;;12.80;6.88;;;;;;;15.16;100.00;101944.13;2614628;54;20038;-53
2022/10/31 09:44:13;;;;;;;12.05;6.80;;;;;;;15.37;100.00;101941.31;2620661;36;20026;-54
2022/10/31 09:50:04;;;;;;;9.35;5.63;;;;;;;15.58;100.00;101943.88;2616375;36;20034;-56
2022/10/31 09:52:38;;;;;;;13.13;5.32;;;;;;;15.76;100.00;101938.59;2614986;36;20041;-55
2022/10/31 09:55:16;;;;;;;9.65;5.38;;;;;;;15.91;100.00;101940.91;2615100;39;20423;-53
2022/10/31 10:03:26;;;;;;;9.57;4.15;;;;;;;16.67;100.00;101928.25;2615056;54;20532;-56
2022/10/31 10:11:05;;;;;;;4.72;3.08;;;;;;;16.71;100.00;101924.22;2613568;54;20042;-56
2022/10/31 10:21:22;;;;;;;6.45;2.95;;;;;;;16.49;100.00;101920.91;2613668;54;20026;-58
2022/10/31 10:26:38;;;;;;;;;;;;;;;16.37;100.00;101901.22;2612735;36;20046;-55
2022/10/31 10:31:59;;;;;;;8.48;4.10;;;;;;;16.39;100.00;101903.78;2612700;54;20027;-56
2022/10/31 10:34:32;;;;;;;7.05;3.78;;;;;;;16.46;100.00;101897.59;2621066;36;20030;-54
2022/10/31 10:47:45;;;;;;;9.73;4.82;;;;;;;17.24;100.00;101881.84;2615605;54;20053;-55
2022/10/31 10:50:20;;;;;;;9.35;4.90;;;;;;;16.97;100.00;101876.31;2616580;36;20023;-54
2022/10/31 10:53:07;;;;;;;11.13;4.25;;;;;;;17.01;100.00;101868.69;2616977;31;20540;-55
2022/10/31 10:55:43;;;;;;;8.63;4.60;;;;;;;16.95;100.00;101861.16;2616302;36;20022;-59
2022/10/31 11:03:38;;;;;;;15.55;5.18;;;;;;;17.02;100.00;101862.25;2613559;39;20513;-52
2022/10/31 11:06:07;;;;;;;10.82;4.90;;;;;;;16.97;100.00;101865.44;2616508;36;20030;-56
2022/10/31 11:08:37;;;;;;;12.40;4.88;;;;;;;16.99;100.00;101854.41;2615365;36;20030;-56
2022/10/31 11:11:09;;;;;;;10.90;4.78;;;;;;;17.04;100.00;101849.34;2616101;36;20034;-56
2022/10/31 11:13:38;;;;;;;11.63;4.80;;;;;;;17.26;100.00;101826.25;2615205;36;20539;-56
2022/10/31 11:16:08;;;;;;;;;;;;;;;17.35;100.00;101824.47;2616974;36;20431;-56
2022/10/31 11:18:42;;;;;;;8.40;4.28;;;;;;;17.63;100.00;101810.75;2617026;31;20417;-54
2022/10/31 11:21:23;;;;;;;7.55;3.97;;;;;;;17.69;100.00;101805.50;2616280;36;20507;-55
2022/10/31 11:23:52;;;;;;;9.48;3.83;;;;;;;17.70;100.00;101798.19;2616017;36;20046;-56
2022/10/31 11:26:22;;;;;;;10.15;4.68;;;;;;;17.79;100.00;101783.59;2616090;36;20061;-57
2022/10/31 11:34:22;;;;;;;11.85;5.35;;;;;;;17.92;100.00;101755.09;2614105;36;20435;-56
2022/10/31 11:36:53;;;;;;;10.93;5.10;;;;;;;18.02;100.00;101739.50;2614434;36;20022;-54
2022/10/31 11:39:25;;;;;;;8.73;5.28;;;;;;;18.09;100.00;101736.97;2616458;31;20039;-56
2022/10/31 11:41:55;;;;;;;12.68;6.20;;;;;;;18.02;100.00;101736.75;2615595;36;20023;-56
2022/10/31 11:44:28;;;;;;;13.75;6.88;;;;;;;18.38;100.00;101733.84;2615518;31;20042;-55
2022/10/31 11:47:00;;;;;;;14.18;6.50;;;;;;;18.36;100.00;101747.63;2615217;36;20030;-55
2022/10/31 11:49:33;;;;;;;17.60;7.70;;;;;;;18.08;100.00;101743.44;2616420;36;20057;-55
2022/10/31 11:52:06;;;;;;;21.30;8.63;;;;;;;17.98;100.00;101759.94;2615816;36;20025;-53
2022/10/31 11:54:44;;;;;;;16.40;7.78;;;;;;;17.97;100.00;101756.31;2617306;31;20092;-57
2022/10/31 12:02:28;;;;;;;18.45;9.43;;;;;;;17.42;100.00;101757.50;2613067;31;20531;-55
2022/10/31 12:05:05;;;;;;;;;;;;;;;17.72;100.00;101755.31;2616280;36;20034;-56
2022/10/31 12:20:47;;;;;;;20.50;9.27;;;;;;;17.94;100.00;101688.56;2614851;36;20471;-57
2022/10/31 12:39:06;;;;;;;19.65;9.13;;;;;;;17.69;100.00;101663.91;2631461;36;20050;-56
2022/10/31 12:49:37;;;;;;;18.52;9.93;;;;;;;17.83;100.00;101653.44;2613764;54;20063;-54
2022/10/31 12:52:20;;;;;;;24.30;12.18;;;;;;;17.66;100.00;101642.47;2635073;36;20455;-55
2022/10/31 12:55:07;;;;;;;20.38;10.35;;;;;;;17.63;100.00;101633.78;2617597;31;20500;-53
2022/10/31 13:05:21;;;;;;;23.55;11.68;;;;;;;18.18;100.00;101605.19;2614322;36;20037;-58
2022/10/31 13:07:55;;;;;;;21.48;11.15;;;;;;;18.10;100.00;101602.47;2615598;36;20031;-55
2022/10/31 13:18:07;;;;;;;21.92;10.40;;;;;;;17.96;100.00;101574.00;2612241;54;20046;-55
2022/10/31 13:36:05;;;;;;;21.90;11.57;;;;;;;17.83;100.00;101560.88;2615487;39;20516;-52
2022/10/31 13:38:40;;;;;;;23.13;10.80;;;;;;;17.84;100.00;101562.53;2615890;31;20030;-57
2022/10/31 13:48:42;;;;;;;22.23;11.48;;;;;;;17.87;100.00;101521.38;2613372;36;20121;-56
2022/10/31 13:51:13;;;;;;;26.17;11.63;;;;;;;17.79;100.00;101527.66;2617096;36;20409;-53
2022/10/31 13:53:46;;;;;;;23.77;10.63;;;;;;;17.93;100.00;101518.03;2615762;36;20018;-55
2022/10/31 13:56:22;;;;;;;20.77;11.10;;;;;;;17.93;100.00;101517.16;2615883;36;20516;-54
2022/10/31 13:59:19;;;;;;;18.42;10.02;;;;;;;17.77;100.00;101512.50;2616154;36;20405;-57
2022/10/31 14:01:54;;;;;;;23.35;11.20;;;;;;;17.77;100.00;101502.47;2615935;36;20558;-54
2022/10/31 14:04:39;;;;;;;22.27;10.38;;;;;;;17.88;100.00;101503.16;2616140;36;20061;-56
2022/10/31 14:07:12;;;;;;;16.52;9.52;;;;;;;17.86;100.00;101496.00;2616031;36;20061;-58
2022/10/31 14:09:53;;;;;;;21.50;10.25;;;;;;;17.86;100.00;101490.56;2616021;31;20027;-53
2022/10/31 14:12:28;;;;;;;23.48;11.43;;;;;;;17.80;100.00;101474.91;2616124;36;20030;-56
2022/10/31 14:15:00;;;;;;;21.65;11.13;;;;;;;17.74;100.00;101481.03;2616216;36;20023;-55
2022/10/31 14:25:33;;;;;;;26.13;11.00;;;;;;;17.58;100.00;101470.09;2613359;54;20070;-55
2022/10/31 14:28:03;;;;;;;21.77;10.95;;;;;;;17.90;100.00;101455.69;2616361;36;20023;-56
2022/10/31 14:30:33;;;;;;;25.05;11.52;;;;;;;17.82;100.00;101464.69;2616826;36;20034;-56
2022/10/31 14:33:04;;;;;;;25.38;12.02;;;;;;;17.68;100.00;101455.31;2616912;31;20023;-58
2022/10/31 14:35:49;;;;;;;21.88;10.98;;;;;;;17.66;100.00;101451.91;2615755;31;20035;-56
2022/10/31 14:38:28;;;;;;;23.25;10.48;;;;;;;17.65;100.00;101449.34;2615358;36;20443;-56
2022/10/31 14:41:35;;;;;;;23.75;11.73;;;;;;;17.37;100.00;101454.25;2616492;31;20041;-59
2022/10/31 14:51:46;;;;;;;24.85;12.25;;;;;;;17.43;100.00;101421.78;2614330;31;20796;-58
2022/10/31 15:02:15;;;;;;;26.15;12.32;;;;;;;17.21;100.00;101408.78;2619398;36;20587;-55
2022/10/31 15:04:46;;;;;;;23.98;11.93;;;;;;;17.09;100.00;101400.97;2614455;36;20073;-57
2022/10/31 15:07:19;;;;;;;23.52;11.13;;;;;;;17.20;100.00;101398.97;2616085;36;20065;-55
2022/10/31 15:09:57;;;;;;;23.83;12.23;;;;;;;17.19;100.00;101389.09;2616516;31;20038;-57
2022/10/31 16:06:23;;;;;;;26.20;11.05;;;;;;;16.38;100.00;101329.66;2613265;36;20035;-56
2022/10/31 16:24:29;;;;;;;23.23;11.77;;;;;;;16.30;100.00;101280.72;2614120;36;20062;-54
2022/10/31 16:27:05;;;;;;;28.95;11.75;;;;;;;16.18;100.00;101282.03;2614325;31;20031;-52
2022/10/31 16:37:14;;;;;;;26.77;11.45;;;;;;;16.11;100.00;101290.81;2613266;36;20065;-55
2022/10/31 16:54:52;;;;;;;46.75;28.92;;;;;;;16.07;100.00;101281.28;2613471;36;20042;-57
2022/10/31 16:57:23;;;;;;;33.45;17.48;;;;;;;16.04;100.00;101276.19;2614207;36;20034;-56
2022/10/31 16:59:56;;;;;;;26.60;15.20;;;;;;;15.91;100.00;101270.34;2613440;36;20073;-55
2022/10/31 17:02:24;;;;;;;30.55;13.55;;;;;;;15.85;100.00;101262.84;2614822;36;20137;-56
2022/10/31 17:04:52;;;;;;;29.15;12.70;;;;;;;15.97;100.00;101258.84;2613418;36;20030;-56
2022/10/31 17:07:21;;;;;;;31.50;14.53;;;;;;;15.85;100.00;101262.84;2615746;31;20034;-50
2022/10/31 17:09:52;;;;;;;29.10;13.03;;;;;;;15.91;100.00;101251.34;2614969;36;20562;-57
2022/10/31 17:12:24;;;;;;;30.80;14.23;;;;;;;15.87;100.00;101247.25;2613748;36;20439;-57
2022/10/31 17:22:29;;;;;;;31.38;14.05;;;;;;;15.74;100.00;101234.94;2613183;36;20065;-55
2022/10/31 17:25:00;;;;;;;35.33;15.93;;;;;;;15.74;100.00;101232.22;2614643;36;20552;-53
2022/10/31 17:27:30;;;;;;;33.70;14.95;;;;;;;15.82;100.00;101233.31;2615117;36;20439;-55
2022/10/31 17:29:58;;;;;;;29.13;14.30;;;;;;;15.88;100.00;101225.38;2614797;36;20041;-56
2022/10/31 17:40:18;;;;;;;36.30;15.35;;;;;;;15.80;100.00;101221.75;2613629;36;20570;-56
2022/10/31 17:42:51;;;;;;;31.85;15.55;;;;;;;15.82;100.00;101226.03;2614103;36;20073;-53
2022/10/31 17:45:20;;;;;;;33.40;16.98;;;;;;;15.89;100.00;101223.53;2614469;36;20030;-54
2022/10/31 17:47:49;;;;;;;36.60;15.93;;;;;;;15.93;100.00;101216.75;2612906;36;20034;-55
2022/10/31 17:50:23;;;;;;;39.35;17.05;;;;;;;15.93;100.00;101200.47;2614686;36;20538;-57
2022/10/31 17:52:51;;;;;;;30.42;15.07;;;;;;;15.93;100.00;101192.34;2613668;36;20116;-55
2022/10/31 17:55:22;;;;;;;35.92;17.48;;;;;;;15.97;100.00;101193.69;2614471;36;20034;-55
2022/10/31 17:57:51;;;;;;;34.03;15.27;;;;;;;15.93;100.00;101192.34;2615934;36;20099;-55
2022/10/31 18:08:01;;;;;;;34.90;16.65;;;;;;;15.89;100.00;101169.25;2612125;54;20151;-53
2022/10/31 18:17:50;;;;;;;34.67;16.88;;;;;;;15.55;100.00;101162.75;2612909;47;20030;-57
2022/10/31 18:35:50;;;;;;;34.20;16.20;;;;;;;15.46;100.00;101097.75;2611701;54;20038;-59
2022/10/31 18:46:09;;;;;;;34.50;15.90;;;;;;;15.40;100.00;101083.84;2611561;36;20061;-56
2022/10/31 18:56:03;;;;;;;32.75;14.80;;;;;;;15.29;100.00;101102.28;2614335;36;20041;-56
2022/10/31 18:58:34;;;;;;;37.05;15.32;;;;;;;15.23;100.00;101109.19;2614581;36;20030;-55
2022/10/31 19:01:09;;;;;;;28.77;14.00;;;;;;;15.22;100.00;101102.06;2614049;39;20435;-56
2022/10/31 19:08:46;;;;;;;31.13;13.90;;;;;;;15.29;100.00;101094.97;2612533;54;20106;-57
2022/10/31 19:11:18;;;;;;;33.85;14.73;;;;;;;15.28;100.00;101087.84;2612169;36;20026;-56
2022/10/31 19:13:46;;;;;;;31.45;13.15;;;;;;;15.26;100.00;101080.91;2614258;36;20550;-59
2022/10/31 19:23:42;;;;;;;31.27;13.50;;;;;;;15.33;100.00;101066.53;2614054;54;20038;-54
2022/10/31 19:26:10;;;;;;;27.50;12.07;;;;;;;15.26;100.00;101062.75;2614219;36;20030;-56
2022/10/31 19:36:31;;;;;;;26.52;12.40;;;;;;;15.25;100.00;101058.34;2611409;36;20117;-58
2022/10/31 19:38:59;;;;;;;28.30;13.00;;;;;;;15.12;100.00;101069.66;2615442;36;20627;-58
2022/10/31 19:41:30;;;;;;;32.42;13.13;;;;;;;15.05;100.00;101066.72;2615143;36;20035;-57
2022/10/31 19:44:01;;;;;;;26.60;12.18;;;;;;;15.10;100.00;101065.41;2614230;36;20030;-54
2022/10/31 19:46:29;;;;;;;26.33;12.40;;;;;;;15.02;100.00;101067.03;2614147;36;20031;-56